createdAt,value
2022-12-17T00:04:09.450Z,0.60
2022-12-17T00:07:43.886Z,0.60
2022-12-17T00:10:40.028Z,0.48
2022-12-17T00:13:46.200Z,0.49
2022-12-17T00:16:44.226Z,0.49
2022-12-17T00:19:43.524Z,0.00
2022-12-17T00:22:38.611Z,0.28
2022-12-17T00:25:35.496Z,0.28
2022-12-17T00:28:41.996Z,-0.22
2022-12-17T00:32:02.212Z,0.08
2022-12-17T00:35:09.737Z,0.24
2022-12-17T00:38:09.790Z,-0.33
2022-12-17T00:41:13.527Z,0.34
2022-12-17T00:45:39.323Z,0.36
2022-12-17T00:48:46.341Z,0.32
2022-12-17T00:52:08.711Z,0.35
2022-12-17T00:55:05.095Z,0.40
2022-12-17T00:58:10.906Z,0.31
2022-12-17T01:01:04.530Z,0.38
2022-12-17T01:04:28.507Z,0.04
2022-12-17T01:07:39.208Z,-0.08
2022-12-17T01:20:38.296Z,-0.03
2022-12-17T01:25:07.385Z,0.14
2022-12-17T01:28:39.748Z,0.08
2022-12-17T01:31:40.380Z,0.01
2022-12-17T01:35:00.120Z,0.14
2022-12-17T01:51:36.465Z,-0.23
2022-12-17T01:54:41.078Z,0.10
2022-12-17T01:58:45.826Z,0.10
2022-12-17T02:01:53.286Z,0.05
2022-12-17T02:04:50.819Z,0.05
2022-12-17T02:08:05.780Z,-0.01
2022-12-17T02:11:11.025Z,0.02
2022-12-17T02:14:19.767Z,-0.28
2022-12-17T02:17:19.946Z,0.07
2022-12-17T02:20:48.395Z,0.10
2022-12-17T02:24:05.108Z,0.07
2022-12-17T02:27:04.133Z,0.06
2022-12-17T02:30:08.307Z,0.05
2022-12-17T02:33:04.693Z,0.09
2022-12-17T02:36:02.360Z,0.09
2022-12-17T02:39:06.488Z,0.05
2022-12-17T02:42:03.306Z,0.03
2022-12-17T02:45:03.973Z,0.10
2022-12-17T02:48:04.233Z,0.02
2022-12-17T02:51:07.868Z,0.04
2022-12-17T02:55:44.213Z,0.07
2022-12-17T02:58:44.404Z,0.03
2022-12-17T03:01:44.375Z,-0.07
2022-12-17T03:04:41.185Z,-0.06
2022-12-17T03:07:37.212Z,-0.03
2022-12-17T03:10:35.476Z,-0.59
2022-12-17T03:13:43.335Z,-0.02
2022-12-17T03:16:40.496Z,-0.06
2022-12-17T03:19:51.945Z,-0.10
2022-12-17T03:22:47.565Z,-0.16
2022-12-17T03:25:43.884Z,0.02
2022-12-17T03:30:11.114Z,0.09
2022-12-17T03:33:09.062Z,-0.10
2022-12-17T03:36:05.829Z,-0.02
2022-12-17T03:39:21.016Z,-0.04
2022-12-17T03:42:22.826Z,0.00
2022-12-17T03:45:28.317Z,-0.40
2022-12-17T03:48:31.629Z,-0.02
2022-12-17T03:51:32.307Z,-0.03
2022-12-17T03:54:31.004Z,-0.15
2022-12-17T03:57:24.004Z,-0.07
2022-12-17T04:00:20.029Z,-0.13
2022-12-17T04:03:20.836Z,-0.06
2022-12-17T04:06:48.422Z,-0.13
2022-12-17T04:09:47.061Z,-0.09
2022-12-17T04:12:43.388Z,-0.14
2022-12-17T04:15:41.120Z,-0.36
2022-12-17T04:18:37.493Z,-0.28
2022-12-17T04:21:32.983Z,-0.36
2022-12-17T04:24:32.998Z,-0.33
2022-12-17T04:27:34.173Z,-0.35
2022-12-17T04:30:38.473Z,-0.36
2022-12-17T04:33:55.854Z,-0.36
2022-12-17T04:37:12.770Z,-0.34
2022-12-17T04:40:23.066Z,-0.31
2022-12-17T04:43:34.061Z,-0.29
2022-12-17T04:46:39.365Z,-0.25
2022-12-17T04:49:37.019Z,-0.17
2022-12-17T04:52:42.645Z,-0.14
2022-12-17T04:55:48.150Z,-0.15
2022-12-17T04:58:59.039Z,-0.22
2022-12-17T05:02:16.113Z,-0.18
2022-12-17T05:05:06.280Z,-0.14
2022-12-17T05:07:56.653Z,-0.12
2022-12-17T05:10:46.826Z,-0.14
2022-12-17T05:13:38.086Z,-0.09
2022-12-17T05:16:29.886Z,-0.08
2022-12-17T05:19:20.132Z,-0.11
2022-12-17T05:22:09.910Z,-0.11
2022-12-17T05:25:00.278Z,-0.05
2022-12-17T05:27:50.897Z,0.02
2022-12-17T05:30:41.135Z,-0.01
2022-12-17T05:33:32.603Z,0.02
2022-12-17T05:36:23.528Z,0.08
2022-12-17T05:39:14.443Z,0.14
2022-12-17T05:42:05.264Z,0.12
2022-12-17T05:44:56.431Z,0.12
2022-12-17T05:47:52.422Z,0.09
2022-12-17T05:50:42.732Z,0.06
2022-12-17T05:53:33.512Z,0.09
2022-12-17T05:56:24.147Z,0.10
2022-12-17T05:59:14.885Z,0.04
2022-12-17T06:02:05.999Z,0.12
2022-12-17T06:05:01.806Z,0.16
2022-12-17T06:07:53.374Z,0.16
2022-12-17T06:10:43.864Z,0.10
2022-12-17T06:13:35.028Z,0.22
2022-12-17T06:16:26.978Z,0.21
2022-12-17T06:19:18.620Z,0.22
2022-12-17T06:22:09.339Z,0.24
2022-12-17T06:25:00.111Z,0.26
2022-12-17T06:27:50.960Z,0.27
2022-12-17T06:30:41.885Z,0.33
2022-12-17T06:33:32.675Z,0.36
2022-12-17T06:36:23.391Z,0.33
2022-12-17T06:39:13.413Z,0.38
2022-12-17T06:42:04.505Z,0.41
2022-12-17T06:44:57.417Z,0.45
2022-12-17T06:47:47.450Z,0.45
2022-12-17T06:50:37.240Z,0.38
2022-12-17T06:53:29.270Z,0.45
2022-12-17T06:56:20.384Z,0.50
2022-12-17T06:59:11.322Z,0.48
2022-12-17T07:02:02.708Z,0.49
2022-12-17T07:04:53.486Z,0.49
2022-12-17T07:07:44.088Z,0.48
2022-12-17T07:10:35.189Z,0.52
2022-12-17T07:13:36.958Z,0.57
2022-12-17T07:16:28.488Z,0.60
2022-12-17T07:19:22.511Z,0.61
2022-12-17T07:22:16.908Z,0.67
2022-12-17T07:25:06.990Z,0.70
2022-12-17T07:27:58.401Z,0.71
2022-12-17T07:30:55.521Z,0.64
2022-12-17T07:33:46.156Z,0.68
2022-12-17T07:36:37.099Z,0.64
2022-12-17T07:39:27.572Z,0.80
2022-12-17T07:42:18.863Z,0.74
2022-12-17T07:45:09.972Z,0.85
2022-12-17T07:48:00.470Z,0.84
2022-12-17T07:50:50.343Z,0.84
2022-12-17T07:53:40.206Z,0.87
2022-12-17T07:56:30.146Z,0.82
2022-12-17T07:59:20.310Z,0.97
2022-12-17T08:02:10.962Z,0.90
2022-12-17T08:05:02.488Z,1.03
2022-12-17T08:07:52.946Z,1.06
2022-12-17T08:10:43.985Z,1.02
2022-12-17T08:13:35.174Z,1.07
2022-12-17T08:16:29.126Z,1.04
2022-12-17T08:19:20.053Z,1.18
2022-12-17T08:22:10.290Z,1.22
2022-12-17T08:25:00.294Z,1.23
2022-12-17T08:27:50.987Z,1.29
2022-12-17T08:30:41.923Z,1.34
2022-12-17T08:33:32.749Z,1.38
2022-12-17T08:36:23.963Z,1.37
2022-12-17T08:39:14.537Z,1.42
2022-12-17T08:42:05.176Z,1.47
2022-12-17T08:44:56.466Z,1.44
2022-12-17T08:47:48.624Z,1.55
2022-12-17T08:50:38.923Z,1.54
2022-12-17T08:53:34.604Z,1.45
2022-12-17T08:56:27.044Z,1.46
2022-12-17T08:59:17.862Z,1.61
2022-12-17T09:02:08.510Z,1.58
2022-12-17T09:04:58.952Z,1.52
2022-12-17T09:07:50.294Z,1.52
2022-12-17T09:10:40.775Z,1.51
2022-12-17T09:13:30.962Z,1.52
2022-12-17T09:16:22.110Z,1.56
2022-12-17T09:19:12.123Z,1.58
2022-12-17T09:22:05.420Z,1.47
2022-12-17T09:24:55.880Z,1.45
2022-12-17T09:27:46.774Z,1.49
2022-12-17T09:30:47.018Z,1.43
2022-12-17T09:33:38.545Z,1.45
2022-12-17T09:36:36.646Z,1.55
2022-12-17T09:39:26.549Z,1.62
2022-12-17T09:42:24.407Z,1.53
2022-12-17T09:45:22.198Z,1.40
2022-12-17T09:48:24.263Z,1.60
2022-12-17T09:51:18.042Z,1.62
2022-12-17T09:54:12.064Z,1.64
2022-12-17T09:57:03.440Z,1.60
2022-12-17T09:59:55.510Z,1.65
2022-12-17T10:02:49.128Z,1.63
2022-12-17T10:05:43.663Z,1.70
2022-12-17T10:08:37.134Z,1.77
2022-12-17T10:11:38.001Z,1.77
2022-12-17T10:14:35.481Z,1.80
2022-12-17T10:17:33.011Z,1.75
2022-12-17T10:20:33.380Z,1.82
2022-12-17T10:23:24.126Z,1.84
2022-12-17T10:26:15.328Z,1.89
2022-12-17T10:29:05.553Z,1.84
2022-12-17T10:31:56.547Z,1.89
2022-12-17T10:34:46.638Z,1.91
2022-12-17T10:37:59.170Z,1.83
2022-12-17T10:40:53.063Z,1.92
2022-12-17T10:43:49.250Z,1.98
2022-12-17T10:46:45.099Z,2.06
2022-12-17T10:49:37.735Z,2.09
2022-12-17T10:52:54.578Z,2.02
2022-12-17T10:55:49.528Z,2.15
2022-12-17T10:58:44.506Z,2.19
2022-12-17T11:01:41.337Z,2.13
2022-12-17T11:04:47.658Z,2.07
2022-12-17T11:07:47.279Z,2.13
2022-12-17T11:10:40.807Z,2.22
2022-12-17T11:13:35.176Z,2.22
2022-12-17T11:16:35.818Z,2.28
2022-12-17T11:19:44.789Z,2.22
2022-12-17T11:22:47.758Z,2.15
2022-12-17T11:25:50.117Z,2.08
2022-12-17T11:28:45.443Z,2.17
2022-12-17T11:31:57.848Z,2.21
2022-12-17T11:34:59.893Z,2.28
2022-12-17T11:37:55.770Z,2.14
2022-12-17T11:40:55.905Z,2.19
2022-12-17T11:43:55.180Z,2.15
2022-12-17T11:46:59.061Z,2.22
2022-12-17T11:49:58.358Z,2.05
2022-12-17T11:52:54.225Z,2.26
2022-12-17T11:55:55.872Z,2.25
2022-12-17T11:58:54.766Z,2.24
2022-12-17T12:01:53.851Z,2.27
2022-12-17T12:05:01.106Z,2.14
2022-12-17T12:08:02.666Z,2.23
2022-12-17T12:10:59.561Z,2.24
2022-12-17T12:13:59.123Z,2.25
2022-12-17T12:17:00.178Z,2.26
2022-12-17T12:20:02.520Z,2.10
2022-12-17T12:23:04.641Z,2.11
2022-12-17T12:26:02.835Z,2.12
2022-12-17T12:28:58.980Z,2.16
2022-12-17T12:31:56.840Z,2.08
2022-12-17T12:34:53.134Z,2.21
2022-12-17T12:37:45.045Z,2.17
2022-12-17T12:40:41.275Z,2.18
2022-12-17T12:43:40.723Z,2.13
2022-12-17T12:46:39.847Z,2.04
2022-12-17T12:49:45.025Z,2.10
2022-12-17T12:52:40.323Z,2.16
2022-12-17T12:55:32.427Z,2.10
2022-12-17T12:58:42.818Z,1.99
2022-12-17T13:01:34.255Z,1.96
2022-12-17T13:04:49.098Z,1.92
2022-12-17T13:07:28.217Z,1.97
2022-12-17T13:10:04.231Z,2.01
2022-12-17T13:12:46.807Z,1.95
2022-12-17T13:15:37.631Z,1.96
2022-12-17T13:18:24.789Z,1.88
2022-12-17T13:21:04.679Z,1.86
2022-12-17T13:23:40.421Z,1.82
2022-12-17T13:26:26.360Z,1.85
2022-12-17T13:29:20.969Z,1.70
2022-12-17T13:32:28.343Z,1.83
2022-12-17T13:35:20.144Z,1.77
2022-12-17T13:38:09.345Z,1.76
2022-12-17T13:40:48.102Z,1.73
2022-12-17T13:43:26.102Z,1.64
2022-12-17T13:46:06.364Z,1.75
2022-12-17T13:48:41.436Z,1.64
2022-12-17T13:51:23.348Z,1.62
2022-12-17T13:53:58.412Z,1.58
2022-12-17T13:56:34.899Z,1.65
2022-12-17T13:59:18.015Z,1.58
2022-12-17T14:01:53.566Z,1.63
2022-12-17T14:04:29.761Z,1.58
2022-12-17T14:07:06.287Z,1.61
2022-12-17T14:09:44.708Z,1.62
2022-12-17T14:12:24.163Z,1.59
2022-12-17T14:14:59.818Z,1.55
2022-12-17T14:17:42.458Z,1.57
2022-12-17T14:20:19.926Z,1.62
2022-12-17T14:22:55.796Z,1.59
2022-12-17T14:25:33.608Z,1.61
2022-12-17T14:28:20.637Z,1.51
2022-12-17T14:34:08.774Z,1.45
2022-12-17T14:36:43.799Z,1.43
2022-12-17T14:39:24.098Z,1.45
2022-12-17T14:42:15.759Z,1.43
2022-12-17T14:44:57.721Z,1.45
2022-12-17T14:47:32.337Z,1.49
2022-12-17T14:50:25.881Z,1.45
2022-12-17T14:53:01.537Z,1.46
2022-12-17T14:55:40.400Z,1.39
2022-12-17T14:58:19.219Z,1.42
2022-12-17T15:00:55.879Z,1.45
2022-12-17T15:03:32.854Z,1.44
2022-12-17T15:06:08.545Z,1.51
2022-12-17T15:08:44.744Z,1.47
2022-12-17T15:11:20.288Z,1.48
2022-12-17T15:13:56.664Z,1.53
2022-12-17T15:16:29.960Z,1.65
2022-12-17T15:19:02.770Z,1.67
2022-12-17T15:21:35.588Z,1.70
2022-12-17T15:24:12.830Z,1.76
2022-12-17T15:26:46.102Z,1.82
2022-12-17T15:29:19.039Z,1.80
2022-12-17T15:31:51.611Z,1.88
2022-12-17T15:34:24.226Z,1.81
2022-12-17T15:36:57.450Z,1.84
2022-12-17T15:39:32.137Z,1.84
2022-12-17T15:42:22.859Z,1.89
2022-12-17T15:44:56.466Z,1.83
2022-12-17T15:47:29.288Z,1.78
2022-12-17T15:50:02.448Z,1.75
2022-12-17T15:52:38.139Z,1.64
2022-12-17T15:55:14.102Z,1.78
2022-12-17T15:57:47.779Z,1.71
2022-12-17T16:00:20.774Z,1.70
2022-12-17T16:02:53.911Z,1.73
2022-12-17T16:05:26.172Z,1.74
2022-12-17T16:08:02.706Z,1.74
2022-12-17T16:10:36.152Z,1.71
2022-12-17T16:13:10.313Z,1.81
2022-12-17T16:15:43.764Z,1.80
2022-12-17T16:18:18.080Z,1.81
2022-12-17T16:20:51.632Z,1.67
2022-12-17T16:23:24.824Z,1.79
2022-12-17T16:26:02.067Z,1.77
2022-12-17T16:28:36.787Z,1.74
2022-12-17T16:31:14.854Z,1.72
2022-12-17T16:33:49.300Z,1.72
2022-12-17T16:36:24.017Z,1.72
2022-12-17T16:38:58.514Z,1.76
2022-12-17T16:41:31.877Z,1.71
2022-12-17T16:44:06.190Z,1.68
2022-12-17T16:46:44.482Z,1.70
2022-12-17T16:49:19.371Z,1.67
2022-12-17T16:51:53.336Z,1.76
2022-12-17T16:54:31.777Z,1.75
2022-12-17T16:57:07.262Z,1.72
2022-12-17T16:59:40.641Z,1.78
2022-12-17T17:02:16.643Z,1.82
2022-12-17T17:04:49.154Z,1.76
2022-12-17T17:07:22.143Z,1.80
2022-12-17T17:09:55.518Z,1.75
2022-12-17T17:12:30.279Z,1.66
2022-12-17T17:15:01.943Z,1.58
2022-12-17T17:17:54.729Z,1.72
2022-12-17T17:20:28.202Z,1.63
2022-12-17T17:23:03.803Z,1.63
2022-12-17T17:25:57.853Z,1.59
2022-12-17T17:28:29.855Z,1.60
2022-12-17T17:31:05.499Z,1.54
2022-12-17T17:33:40.154Z,1.46
2022-12-17T17:36:12.563Z,1.43
2022-12-17T17:38:47.122Z,1.43
2022-12-17T17:41:19.477Z,1.35
2022-12-17T17:43:56.667Z,1.41
2022-12-17T17:46:32.198Z,1.39
2022-12-17T17:49:08.632Z,1.44
2022-12-17T17:54:39.491Z,1.43
2022-12-17T17:57:13.417Z,1.40
2022-12-17T17:59:48.397Z,1.42
2022-12-17T18:02:21.197Z,1.31
2022-12-17T18:04:54.211Z,1.45
2022-12-17T18:07:28.247Z,1.45
2022-12-17T18:10:01.729Z,1.50
2022-12-17T18:12:51.911Z,1.46
2022-12-17T18:15:25.360Z,1.49
2022-12-17T18:17:58.580Z,1.37
2022-12-17T18:20:31.134Z,1.41
2022-12-17T18:23:03.952Z,1.37
2022-12-17T18:25:37.918Z,1.37
2022-12-17T18:28:12.209Z,1.20
2022-12-17T18:30:44.871Z,1.22
2022-12-17T18:33:18.347Z,1.19
2022-12-17T18:35:51.629Z,1.16
2022-12-17T18:38:25.239Z,1.10
2022-12-17T18:41:28.584Z,1.20
2022-12-17T18:44:04.692Z,1.16
2022-12-17T18:46:37.894Z,1.06
2022-12-17T18:49:12.444Z,1.08
2022-12-17T18:51:44.100Z,1.10
2022-12-17T18:54:18.724Z,1.03
2022-12-17T18:57:00.840Z,1.02
2022-12-17T18:59:34.873Z,0.96
2022-12-17T19:02:07.778Z,1.02
2022-12-17T19:04:41.241Z,1.10
2022-12-17T19:07:14.237Z,1.16
2022-12-17T19:09:47.838Z,1.08
2022-12-17T19:12:21.093Z,1.09
2022-12-17T19:14:54.540Z,1.09
2022-12-17T19:17:27.257Z,1.14
2022-12-17T19:19:59.819Z,1.17
2022-12-17T19:22:32.792Z,1.03
2022-12-17T19:25:05.890Z,1.06
2022-12-17T19:27:39.358Z,1.13
2022-12-17T19:30:15.054Z,0.96
2022-12-17T19:32:47.840Z,0.82
2022-12-17T19:35:20.714Z,0.87
2022-12-17T19:37:53.572Z,0.96
2022-12-17T19:40:26.556Z,0.99
2022-12-17T19:42:59.747Z,0.96
2022-12-17T19:45:34.207Z,1.02
2022-12-17T19:48:06.999Z,1.15
2022-12-17T19:50:41.381Z,1.07
2022-12-17T19:53:16.245Z,0.99
2022-12-17T19:55:50.223Z,1.06
2022-12-17T19:58:24.484Z,1.05
2022-12-17T20:00:57.729Z,1.04
2022-12-17T20:03:30.665Z,0.97
2022-12-17T20:06:04.825Z,1.04
2022-12-17T20:08:38.832Z,0.98
2022-12-17T20:11:27.736Z,1.11
2022-12-17T20:14:02.057Z,1.07
2022-12-17T20:16:37.386Z,1.01
2022-12-17T20:19:12.770Z,1.00
2022-12-17T20:21:46.310Z,1.06
2022-12-17T20:24:30.328Z,0.99
2022-12-17T20:27:04.930Z,0.86
2022-12-17T20:29:42.052Z,0.78
2022-12-17T20:32:19.779Z,0.80
2022-12-17T20:34:54.363Z,0.70
2022-12-17T20:37:26.240Z,0.86
2022-12-17T20:39:59.287Z,0.88
2022-12-17T20:42:31.644Z,0.94
2022-12-17T20:45:05.064Z,0.88
2022-12-17T20:47:39.189Z,0.65
2022-12-17T20:50:12.686Z,0.79
2022-12-17T20:52:45.559Z,0.85
2022-12-17T20:55:19.450Z,0.89
2022-12-17T20:57:54.934Z,0.78
2022-12-17T21:00:30.666Z,0.76
2022-12-17T21:03:03.738Z,0.69
2022-12-17T21:05:37.760Z,0.59
2022-12-17T21:08:14.210Z,0.62
2022-12-17T21:10:49.133Z,0.64
2022-12-17T21:13:31.553Z,0.66
2022-12-17T21:16:07.971Z,0.64
2022-12-17T21:18:43.379Z,0.42
2022-12-17T21:21:18.888Z,0.37
2022-12-17T21:23:52.992Z,0.57
2022-12-17T21:26:27.660Z,0.60
2022-12-17T21:29:03.845Z,0.59
2022-12-17T21:31:40.844Z,0.48
2022-12-17T21:34:18.998Z,0.60
2022-12-17T21:36:53.126Z,0.63
2022-12-17T21:39:27.070Z,0.73
2022-12-17T21:42:13.659Z,0.67
2022-12-17T21:44:49.123Z,0.56
2022-12-17T21:47:24.002Z,0.61
2022-12-17T21:49:58.121Z,0.51
2022-12-17T21:52:40.000Z,0.51
2022-12-17T21:55:13.191Z,0.63
2022-12-17T21:57:45.944Z,0.61
2022-12-17T22:00:23.743Z,0.58
2022-12-17T22:02:57.208Z,0.54
2022-12-17T22:05:31.599Z,0.46
2022-12-17T22:08:06.566Z,0.49
2022-12-17T22:10:48.524Z,0.52
2022-12-17T22:13:41.244Z,0.59
2022-12-17T22:16:15.771Z,0.64
2022-12-17T22:18:49.562Z,0.61
2022-12-17T22:21:24.600Z,0.66
2022-12-17T22:23:57.639Z,0.67
2022-12-17T22:26:34.112Z,0.65
2022-12-17T22:29:09.875Z,0.63
2022-12-17T22:32:12.497Z,0.50
2022-12-17T22:36:00.068Z,0.20
2022-12-17T22:42:06.236Z,0.45
2022-12-17T22:44:32.404Z,0.55
2022-12-17T22:44:43.213Z,0.61
2022-12-17T22:46:25.438Z,0.52
2022-12-17T22:48:59.025Z,0.52
2022-12-17T22:51:33.789Z,0.28
2022-12-17T22:54:09.579Z,0.24
2022-12-17T22:57:03.095Z,0.17
2022-12-17T22:59:36.278Z,0.41
2022-12-17T23:02:10.464Z,0.51
2022-12-17T23:04:43.731Z,0.44
2022-12-17T23:07:16.805Z,0.22
2022-12-17T23:09:50.409Z,0.46
2022-12-17T23:12:41.282Z,0.29
2022-12-17T23:15:37.455Z,0.36
2022-12-17T23:18:10.065Z,0.29
2022-12-17T23:20:42.473Z,0.33
2022-12-17T23:23:14.691Z,0.02
2022-12-17T23:25:46.831Z,0.07
2022-12-17T23:28:18.922Z,0.09
2022-12-17T23:30:51.205Z,0.08
2022-12-17T23:33:23.578Z,-0.04
2022-12-17T23:36:05.248Z,-0.09
2022-12-17T23:38:38.022Z,-0.07
2022-12-17T23:41:12.436Z,-0.14
2022-12-17T23:43:44.998Z,-0.12
2022-12-17T23:46:17.970Z,-0.10
2022-12-17T23:48:51.011Z,-0.10
2022-12-17T23:51:25.192Z,-0.36
2022-12-17T23:53:57.345Z,-0.22
2022-12-17T23:56:30.641Z,-0.32
2022-12-17T23:59:04.328Z,-0.34
